sensor_id;sensor_type;location;lat;lon;timestamp;P1;durP1;ratioP1;P2;durP2;ratioP2
10985;SDS011;5546;48.714;8.738;2023-03-07T00:00:34;12.03;;;8.37;;
10985;SDS011;5546;48.714;8.738;2023-03-07T00:03:00;12.20;;;7.77;;
10985;SDS011;5546;48.714;8.738;2023-03-07T00:05:26;10.30;;;7.37;;
10985;SDS011;5546;48.714;8.738;2023-03-07T00:07:52;12.27;;;8.37;;
10985;SDS011;5546;48.714;8.738;2023-03-07T00:10:18;13.27;;;8.43;;
10985;SDS011;5546;48.714;8.738;2023-03-07T00:12:43;14.37;;;8.53;;
10985;SDS011;5546;48.714;8.738;2023-03-07T00:15:09;14.50;;;9.37;;
10985;SDS011;5546;48.714;8.738;2023-03-07T00:17:36;13.10;;;8.40;;
10985;SDS011;5546;48.714;8.738;2023-03-07T00:20:02;12.93;;;8.33;;
10985;SDS011;5546;48.714;8.738;2023-03-07T00:22:34;12.20;;;8.43;;
10985;SDS011;5546;48.714;8.738;2023-03-07T00:25:00;14.20;;;9.60;;
10985;SDS011;5546;48.714;8.738;2023-03-07T00:27:26;10.90;;;7.70;;
10985;SDS011;5546;48.714;8.738;2023-03-07T00:29:52;13.57;;;8.10;;
10985;SDS011;5546;48.714;8.738;2023-03-07T00:32:18;11.30;;;8.40;;
10985;SDS011;5546;48.714;8.738;2023-03-07T00:34:44;13.63;;;8.67;;
10985;SDS011;5546;48.714;8.738;2023-03-07T00:37:10;13.83;;;8.80;;
10985;SDS011;5546;48.714;8.738;2023-03-07T00:39:35;11.97;;;8.30;;
10985;SDS011;5546;48.714;8.738;2023-03-07T00:42:01;12.73;;;8.73;;
10985;SDS011;5546;48.714;8.738;2023-03-07T00:44:26;11.63;;;7.30;;
10985;SDS011;5546;48.714;8.738;2023-03-07T00:46:54;11.53;;;8.27;;
10985;SDS011;5546;48.714;8.738;2023-03-07T00:49:20;11.90;;;7.90;;
10985;SDS011;5546;48.714;8.738;2023-03-07T00:51:46;14.20;;;7.77;;
10985;SDS011;5546;48.714;8.738;2023-03-07T00:54:12;14.30;;;8.63;;
10985;SDS011;5546;48.714;8.738;2023-03-07T00:56:38;14.20;;;8.23;;
10985;SDS011;5546;48.714;8.738;2023-03-07T00:59:04;14.93;;;8.87;;
10985;SDS011;5546;48.714;8.738;2023-03-07T01:01:30;13.87;;;8.70;;
10985;SDS011;5546;48.714;8.738;2023-03-07T01:03:55;15.57;;;9.10;;
10985;SDS011;5546;48.714;8.738;2023-03-07T01:06:25;15.47;;;8.53;;
10985;SDS011;5546;48.714;8.738;2023-03-07T01:08:54;12.37;;;8.60;;
10985;SDS011;5546;48.714;8.738;2023-03-07T01:11:21;15.40;;;7.87;;
10985;SDS011;5546;48.714;8.738;2023-03-07T01:13:46;14.70;;;8.43;;
10985;SDS011;5546;48.714;8.738;2023-03-07T01:16:14;14.83;;;8.67;;
10985;SDS011;5546;48.714;8.738;2023-03-07T01:18:48;13.40;;;8.47;;
10985;SDS011;5546;48.714;8.738;2023-03-07T01:21:20;16.23;;;8.73;;
10985;SDS011;5546;48.714;8.738;2023-03-07T01:23:48;14.67;;;8.37;;
10985;SDS011;5546;48.714;8.738;2023-03-07T01:26:15;11.60;;;8.40;;
10985;SDS011;5546;48.714;8.738;2023-03-07T01:28:46;13.90;;;9.03;;
10985;SDS011;5546;48.714;8.738;2023-03-07T01:31:13;12.67;;;8.00;;
10985;SDS011;5546;48.714;8.738;2023-03-07T01:33:39;11.03;;;7.03;;
10985;SDS011;5546;48.714;8.738;2023-03-07T01:36:11;12.00;;;6.80;;
10985;SDS011;5546;48.714;8.738;2023-03-07T01:38:44;10.53;;;7.10;;
10985;SDS011;5546;48.714;8.738;2023-03-07T01:41:11;11.40;;;8.03;;
10985;SDS011;5546;48.714;8.738;2023-03-07T01:43:37;13.23;;;8.47;;
10985;SDS011;5546;48.714;8.738;2023-03-07T01:48:41;13.87;;;7.77;;
10985;SDS011;5546;48.714;8.738;2023-03-07T01:51:08;15.00;;;9.27;;
10985;SDS011;5546;48.714;8.738;2023-03-07T01:53:34;12.50;;;8.03;;
10985;SDS011;5546;48.714;8.738;2023-03-07T01:55:59;14.33;;;8.50;;
10985;SDS011;5546;48.714;8.738;2023-03-07T01:58:25;15.63;;;9.40;;
10985;SDS011;5546;48.714;8.738;2023-03-07T02:00:51;13.57;;;9.37;;
10985;SDS011;5546;48.714;8.738;2023-03-07T02:03:31;14.40;;;8.50;;
10985;SDS011;5546;48.714;8.738;2023-03-07T02:06:04;14.00;;;9.40;;
10985;SDS011;5546;48.714;8.738;2023-03-07T02:08:33;16.30;;;8.67;;
10985;SDS011;5546;48.714;8.738;2023-03-07T02:11:01;12.17;;;7.90;;
10985;SDS011;5546;48.714;8.738;2023-03-07T02:13:27;12.13;;;7.83;;
10985;SDS011;5546;48.714;8.738;2023-03-07T02:15:52;12.70;;;7.73;;
10985;SDS011;5546;48.714;8.738;2023-03-07T02:18:20;12.83;;;8.57;;
10985;SDS011;5546;48.714;8.738;2023-03-07T02:20:59;12.70;;;9.03;;
10985;SDS011;5546;48.714;8.738;2023-03-07T02:23:46;12.73;;;7.97;;
10985;SDS011;5546;48.714;8.738;2023-03-07T02:26:45;12.63;;;8.10;;
10985;SDS011;5546;48.714;8.738;2023-03-07T02:29:12;12.70;;;7.93;;
10985;SDS011;5546;48.714;8.738;2023-03-07T02:31:38;12.80;;;8.60;;
10985;SDS011;5546;48.714;8.738;2023-03-07T02:34:27;13.87;;;8.53;;
10985;SDS011;5546;48.714;8.738;2023-03-07T02:36:56;11.93;;;7.83;;
10985;SDS011;5546;48.714;8.738;2023-03-07T02:39:25;12.67;;;8.40;;
10985;SDS011;5546;48.714;8.738;2023-03-07T02:41:55;11.50;;;8.77;;
10985;SDS011;5546;48.714;8.738;2023-03-07T02:44:24;11.43;;;8.73;;
10985;SDS011;5546;48.714;8.738;2023-03-07T02:46:50;11.47;;;8.93;;
10985;SDS011;5546;48.714;8.738;2023-03-07T02:49:16;13.23;;;9.33;;
10985;SDS011;5546;48.714;8.738;2023-03-07T02:51:42;13.20;;;8.80;;
10985;SDS011;5546;48.714;8.738;2023-03-07T02:54:08;12.70;;;9.10;;
10985;SDS011;5546;48.714;8.738;2023-03-07T02:56:34;12.47;;;8.37;;
10985;SDS011;5546;48.714;8.738;2023-03-07T02:59:00;12.63;;;7.87;;
10985;SDS011;5546;48.714;8.738;2023-03-07T03:01:26;15.93;;;9.73;;
10985;SDS011;5546;48.714;8.738;2023-03-07T03:03:52;14.03;;;9.07;;
10985;SDS011;5546;48.714;8.738;2023-03-07T03:06:18;13.50;;;8.53;;
10985;SDS011;5546;48.714;8.738;2023-03-07T03:08:44;11.67;;;7.77;;
10985;SDS011;5546;48.714;8.738;2023-03-07T03:11:09;12.83;;;8.10;;
10985;SDS011;5546;48.714;8.738;2023-03-07T03:13:35;15.87;;;9.43;;
10985;SDS011;5546;48.714;8.738;2023-03-07T03:16:01;12.07;;;8.30;;
10985;SDS011;5546;48.714;8.738;2023-03-07T03:18:28;10.93;;;8.03;;
10985;SDS011;5546;48.714;8.738;2023-03-07T03:20:54;14.17;;;9.03;;
10985;SDS011;5546;48.714;8.738;2023-03-07T03:23:20;14.43;;;8.63;;
10985;SDS011;5546;48.714;8.738;2023-03-07T03:25:55;13.87;;;8.80;;
10985;SDS011;5546;48.714;8.738;2023-03-07T03:28:22;13.57;;;9.23;;
10985;SDS011;5546;48.714;8.738;2023-03-07T03:30:58;12.93;;;8.47;;
10985;SDS011;5546;48.714;8.738;2023-03-07T03:33:25;14.07;;;9.10;;
10985;SDS011;5546;48.714;8.738;2023-03-07T03:35:53;13.00;;;9.07;;
10985;SDS011;5546;48.714;8.738;2023-03-07T03:38:19;16.60;;;9.43;;
10985;SDS011;5546;48.714;8.738;2023-03-07T03:40:45;15.33;;;10.00;;
10985;SDS011;5546;48.714;8.738;2023-03-07T03:43:10;11.87;;;8.30;;
10985;SDS011;5546;48.714;8.738;2023-03-07T03:45:36;16.03;;;10.03;;
10985;SDS011;5546;48.714;8.738;2023-03-07T03:48:02;15.17;;;9.40;;
10985;SDS011;5546;48.714;8.738;2023-03-07T03:50:27;19.37;;;11.77;;
10985;SDS011;5546;48.714;8.738;2023-03-07T03:52:53;17.33;;;9.37;;
10985;SDS011;5546;48.714;8.738;2023-03-07T03:55:18;12.73;;;9.33;;
10985;SDS011;5546;48.714;8.738;2023-03-07T03:57:44;15.77;;;9.27;;
10985;SDS011;5546;48.714;8.738;2023-03-07T04:00:10;15.03;;;9.47;;
10985;SDS011;5546;48.714;8.738;2023-03-07T04:02:38;14.03;;;9.27;;
10985;SDS011;5546;48.714;8.738;2023-03-07T04:05:04;12.80;;;8.80;;
10985;SDS011;5546;48.714;8.738;2023-03-07T04:07:30;13.77;;;9.33;;
10985;SDS011;5546;48.714;8.738;2023-03-07T04:09:56;13.13;;;9.27;;
10985;SDS011;5546;48.714;8.738;2023-03-07T04:12:22;13.00;;;7.80;;
10985;SDS011;5546;48.714;8.738;2023-03-07T04:14:48;12.50;;;9.07;;
10985;SDS011;5546;48.714;8.738;2023-03-07T04:17:14;12.27;;;8.30;;
10985;SDS011;5546;48.714;8.738;2023-03-07T04:19:39;15.23;;;9.53;;
10985;SDS011;5546;48.714;8.738;2023-03-07T04:22:05;12.43;;;7.87;;
10985;SDS011;5546;48.714;8.738;2023-03-07T04:24:30;14.37;;;8.73;;
10985;SDS011;5546;48.714;8.738;2023-03-07T04:26:56;12.70;;;8.73;;
10985;SDS011;5546;48.714;8.738;2023-03-07T04:29:22;13.37;;;9.10;;
10985;SDS011;5546;48.714;8.738;2023-03-07T04:31:47;12.60;;;9.00;;
10985;SDS011;5546;48.714;8.738;2023-03-07T04:34:13;12.70;;;8.50;;
10985;SDS011;5546;48.714;8.738;2023-03-07T04:36:39;14.97;;;9.37;;
10985;SDS011;5546;48.714;8.738;2023-03-07T04:39:04;12.50;;;8.50;;
10985;SDS011;5546;48.714;8.738;2023-03-07T04:41:30;15.53;;;8.67;;
10985;SDS011;5546;48.714;8.738;2023-03-07T04:43:57;11.13;;;8.47;;
10985;SDS011;5546;48.714;8.738;2023-03-07T04:46:23;13.37;;;7.83;;
10985;SDS011;5546;48.714;8.738;2023-03-07T04:48:49;11.50;;;8.43;;
10985;SDS011;5546;48.714;8.738;2023-03-07T04:51:15;13.77;;;8.83;;
10985;SDS011;5546;48.714;8.738;2023-03-07T04:53:41;14.03;;;9.50;;
10985;SDS011;5546;48.714;8.738;2023-03-07T04:56:07;13.33;;;8.70;;
10985;SDS011;5546;48.714;8.738;2023-03-07T04:58:33;14.93;;;9.07;;
10985;SDS011;5546;48.714;8.738;2023-03-07T05:01:00;13.23;;;9.07;;
10985;SDS011;5546;48.714;8.738;2023-03-07T05:03:26;12.57;;;8.67;;
10985;SDS011;5546;48.714;8.738;2023-03-07T05:05:52;11.57;;;7.77;;
10985;SDS011;5546;48.714;8.738;2023-03-07T05:08:18;13.33;;;9.27;;
10985;SDS011;5546;48.714;8.738;2023-03-07T05:10:44;15.23;;;9.47;;
10985;SDS011;5546;48.714;8.738;2023-03-07T05:13:10;13.77;;;9.37;;
10985;SDS011;5546;48.714;8.738;2023-03-07T05:15:36;14.37;;;9.60;;
10985;SDS011;5546;48.714;8.738;2023-03-07T05:18:02;16.93;;;9.10;;
10985;SDS011;5546;48.714;8.738;2023-03-07T05:20:28;15.47;;;10.20;;
10985;SDS011;5546;48.714;8.738;2023-03-07T05:22:55;15.20;;;10.70;;
10985;SDS011;5546;48.714;8.738;2023-03-07T05:25:20;13.00;;;9.27;;
10985;SDS011;5546;48.714;8.738;2023-03-07T05:27:46;15.43;;;10.07;;
10985;SDS011;5546;48.714;8.738;2023-03-07T05:30:12;15.13;;;9.90;;
10985;SDS011;5546;48.714;8.738;2023-03-07T05:32:38;15.50;;;9.70;;
10985;SDS011;5546;48.714;8.738;2023-03-07T05:35:04;15.10;;;9.43;;
10985;SDS011;5546;48.714;8.738;2023-03-07T05:37:32;13.77;;;9.40;;
10985;SDS011;5546;48.714;8.738;2023-03-07T05:39:58;14.53;;;9.53;;
10985;SDS011;5546;48.714;8.738;2023-03-07T05:42:24;14.47;;;10.33;;
10985;SDS011;5546;48.714;8.738;2023-03-07T05:44:50;15.10;;;9.03;;
10985;SDS011;5546;48.714;8.738;2023-03-07T05:47:16;12.60;;;9.07;;
10985;SDS011;5546;48.714;8.738;2023-03-07T05:49:41;14.27;;;9.40;;
10985;SDS011;5546;48.714;8.738;2023-03-07T05:52:07;14.33;;;9.23;;
10985;SDS011;5546;48.714;8.738;2023-03-07T05:54:33;13.70;;;9.63;;
10985;SDS011;5546;48.714;8.738;2023-03-07T05:56:58;28.43;;;17.83;;
10985;SDS011;5546;48.714;8.738;2023-03-07T05:59:24;14.70;;;10.83;;
10985;SDS011;5546;48.714;8.738;2023-03-07T06:01:50;14.27;;;9.53;;
10985;SDS011;5546;48.714;8.738;2023-03-07T06:04:15;16.00;;;9.80;;
10985;SDS011;5546;48.714;8.738;2023-03-07T06:06:41;12.37;;;8.87;;
10985;SDS011;5546;48.714;8.738;2023-03-07T06:09:07;12.77;;;9.03;;
10985;SDS011;5546;48.714;8.738;2023-03-07T06:11:33;13.20;;;9.23;;
10985;SDS011;5546;48.714;8.738;2023-03-07T06:13:59;13.77;;;9.27;;
10985;SDS011;5546;48.714;8.738;2023-03-07T06:16:24;14.73;;;9.10;;
10985;SDS011;5546;48.714;8.738;2023-03-07T06:18:51;14.27;;;9.77;;
10985;SDS011;5546;48.714;8.738;2023-03-07T06:21:16;15.40;;;10.03;;
10985;SDS011;5546;48.714;8.738;2023-03-07T06:23:42;13.33;;;8.93;;
10985;SDS011;5546;48.714;8.738;2023-03-07T06:26:08;18.33;;;11.03;;
10985;SDS011;5546;48.714;8.738;2023-03-07T06:28:36;14.47;;;9.90;;
10985;SDS011;5546;48.714;8.738;2023-03-07T06:31:09;15.43;;;10.60;;
10985;SDS011;5546;48.714;8.738;2023-03-07T06:33:36;17.77;;;11.57;;
10985;SDS011;5546;48.714;8.738;2023-03-07T06:36:08;16.47;;;11.00;;
10985;SDS011;5546;48.714;8.738;2023-03-07T06:38:35;13.97;;;9.43;;
10985;SDS011;5546;48.714;8.738;2023-03-07T06:41:01;16.80;;;10.23;;
10985;SDS011;5546;48.714;8.738;2023-03-07T06:43:27;19.17;;;13.63;;
10985;SDS011;5546;48.714;8.738;2023-03-07T06:45:53;14.27;;;9.50;;
10985;SDS011;5546;48.714;8.738;2023-03-07T06:48:18;13.63;;;9.70;;
10985;SDS011;5546;48.714;8.738;2023-03-07T06:50:44;15.47;;;9.43;;
10985;SDS011;5546;48.714;8.738;2023-03-07T06:53:10;17.37;;;9.00;;
10985;SDS011;5546;48.714;8.738;2023-03-07T06:55:36;16.40;;;10.80;;
10985;SDS011;5546;48.714;8.738;2023-03-07T06:58:01;13.13;;;9.63;;
10985;SDS011;5546;48.714;8.738;2023-03-07T07:00:27;15.23;;;9.77;;
10985;SDS011;5546;48.714;8.738;2023-03-07T07:02:53;12.17;;;9.43;;
10985;SDS011;5546;48.714;8.738;2023-03-07T07:05:19;15.67;;;9.40;;
10985;SDS011;5546;48.714;8.738;2023-03-07T07:07:44;17.27;;;9.30;;
10985;SDS011;5546;48.714;8.738;2023-03-07T07:10:10;15.47;;;9.07;;
10985;SDS011;5546;48.714;8.738;2023-03-07T07:12:36;16.00;;;9.27;;
10985;SDS011;5546;48.714;8.738;2023-03-07T07:15:01;12.47;;;9.10;;
10985;SDS011;5546;48.714;8.738;2023-03-07T07:17:29;13.43;;;8.00;;
10985;SDS011;5546;48.714;8.738;2023-03-07T07:20:02;11.30;;;8.07;;
10985;SDS011;5546;48.714;8.738;2023-03-07T07:22:29;13.57;;;8.33;;
10985;SDS011;5546;48.714;8.738;2023-03-07T07:24:55;12.10;;;9.23;;
10985;SDS011;5546;48.714;8.738;2023-03-07T07:27:21;13.40;;;8.63;;
10985;SDS011;5546;48.714;8.738;2023-03-07T07:29:46;12.83;;;8.70;;
10985;SDS011;5546;48.714;8.738;2023-03-07T07:32:12;13.63;;;8.33;;
10985;SDS011;5546;48.714;8.738;2023-03-07T07:34:37;12.03;;;8.30;;
10985;SDS011;5546;48.714;8.738;2023-03-07T07:37:03;11.53;;;7.83;;
10985;SDS011;5546;48.714;8.738;2023-03-07T07:39:29;12.43;;;7.70;;
10985;SDS011;5546;48.714;8.738;2023-03-07T07:41:54;12.73;;;7.77;;
10985;SDS011;5546;48.714;8.738;2023-03-07T07:44:20;10.67;;;7.30;;
10985;SDS011;5546;48.714;8.738;2023-03-07T07:46:45;11.83;;;7.70;;
10985;SDS011;5546;48.714;8.738;2023-03-07T07:49:11;7.73;;;5.10;;
10985;SDS011;5546;48.714;8.738;2023-03-07T07:51:36;11.90;;;7.90;;
10985;SDS011;5546;48.714;8.738;2023-03-07T07:54:04;11.33;;;7.20;;
10985;SDS011;5546;48.714;8.738;2023-03-07T07:56:30;9.57;;;7.33;;
10985;SDS011;5546;48.714;8.738;2023-03-07T07:58:56;12.83;;;7.60;;
10985;SDS011;5546;48.714;8.738;2023-03-07T08:01:22;11.63;;;7.00;;
10985;SDS011;5546;48.714;8.738;2023-03-07T08:03:48;11.40;;;7.67;;
10985;SDS011;5546;48.714;8.738;2023-03-07T08:06:18;9.53;;;7.63;;
10985;SDS011;5546;48.714;8.738;2023-03-07T08:08:45;10.07;;;7.10;;
10985;SDS011;5546;48.714;8.738;2023-03-07T08:11:12;8.80;;;6.10;;
10985;SDS011;5546;48.714;8.738;2023-03-07T08:13:37;10.80;;;6.97;;
10985;SDS011;5546;48.714;8.738;2023-03-07T08:16:13;10.20;;;5.93;;
10985;SDS011;5546;48.714;8.738;2023-03-07T08:18:41;12.10;;;6.57;;
10985;SDS011;5546;48.714;8.738;2023-03-07T08:21:08;8.50;;;7.13;;
10985;SDS011;5546;48.714;8.738;2023-03-07T08:23:34;10.37;;;6.83;;
10985;SDS011;5546;48.714;8.738;2023-03-07T08:26:01;10.60;;;6.73;;
10985;SDS011;5546;48.714;8.738;2023-03-07T08:28:28;10.40;;;6.60;;
10985;SDS011;5546;48.714;8.738;2023-03-07T08:30:53;9.73;;;7.20;;
10985;SDS011;5546;48.714;8.738;2023-03-07T08:33:19;8.73;;;6.63;;
10985;SDS011;5546;48.714;8.738;2023-03-07T08:35:45;10.73;;;7.43;;
10985;SDS011;5546;48.714;8.738;2023-03-07T08:38:10;10.70;;;7.93;;
10985;SDS011;5546;48.714;8.738;2023-03-07T08:40:36;11.77;;;6.90;;
10985;SDS011;5546;48.714;8.738;2023-03-07T08:43:02;9.80;;;6.57;;
10985;SDS011;5546;48.714;8.738;2023-03-07T08:45:28;15.40;;;6.70;;
10985;SDS011;5546;48.714;8.738;2023-03-07T08:47:54;7.93;;;6.20;;
10985;SDS011;5546;48.714;8.738;2023-03-07T08:50:24;11.90;;;6.27;;
10985;SDS011;5546;48.714;8.738;2023-03-07T08:52:51;8.80;;;6.30;;
10985;SDS011;5546;48.714;8.738;2023-03-07T08:55:17;8.83;;;5.97;;
10985;SDS011;5546;48.714;8.738;2023-03-07T08:57:43;8.13;;;6.13;;
10985;SDS011;5546;48.714;8.738;2023-03-07T09:00:12;10.10;;;6.20;;
10985;SDS011;5546;48.714;8.738;2023-03-07T09:02:39;7.87;;;5.93;;
10985;SDS011;5546;48.714;8.738;2023-03-07T09:05:04;8.80;;;5.83;;
10985;SDS011;5546;48.714;8.738;2023-03-07T09:07:30;8.13;;;6.13;;
10985;SDS011;5546;48.714;8.738;2023-03-07T09:09:56;7.07;;;5.70;;
10985;SDS011;5546;48.714;8.738;2023-03-07T09:12:21;9.53;;;6.40;;
10985;SDS011;5546;48.714;8.738;2023-03-07T09:14:47;13.20;;;6.00;;
10985;SDS011;5546;48.714;8.738;2023-03-07T09:17:13;11.43;;;6.00;;
10985;SDS011;5546;48.714;8.738;2023-03-07T09:19:38;7.73;;;5.97;;
10985;SDS011;5546;48.714;8.738;2023-03-07T09:22:04;10.53;;;6.03;;
10985;SDS011;5546;48.714;8.738;2023-03-07T09:24:30;6.70;;;5.47;;
10985;SDS011;5546;48.714;8.738;2023-03-07T09:26:56;8.20;;;5.87;;
10985;SDS011;5546;48.714;8.738;2023-03-07T09:29:21;6.67;;;5.20;;
10985;SDS011;5546;48.714;8.738;2023-03-07T09:31:47;6.80;;;5.10;;
10985;SDS011;5546;48.714;8.738;2023-03-07T09:34:13;6.97;;;5.40;;
10985;SDS011;5546;48.714;8.738;2023-03-07T09:36:38;12.20;;;7.97;;
10985;SDS011;5546;48.714;8.738;2023-03-07T09:39:04;6.90;;;5.10;;
10985;SDS011;5546;48.714;8.738;2023-03-07T09:44:22;7.53;;;4.67;;
10985;SDS011;5546;48.714;8.738;2023-03-07T09:47:11;6.90;;;5.30;;
10985;SDS011;5546;48.714;8.738;2023-03-07T09:49:57;11.27;;;5.40;;
10985;SDS011;5546;48.714;8.738;2023-03-07T09:52:27;7.57;;;5.13;;
10985;SDS011;5546;48.714;8.738;2023-03-07T09:55:04;7.40;;;5.23;;
10985;SDS011;5546;48.714;8.738;2023-03-07T09:57:44;7.00;;;5.30;;
10985;SDS011;5546;48.714;8.738;2023-03-07T10:05:53;6.97;;;5.30;;
10985;SDS011;5546;48.714;8.738;2023-03-07T10:08:30;8.43;;;5.40;;
10985;SDS011;5546;48.714;8.738;2023-03-07T10:16:53;13.50;;;5.43;;
10985;SDS011;5546;48.714;8.738;2023-03-07T10:22:24;9.37;;;6.07;;
10985;SDS011;5546;48.714;8.738;2023-03-07T10:24:54;7.73;;;5.60;;
10985;SDS011;5546;48.714;8.738;2023-03-07T10:27:31;8.90;;;5.57;;
10985;SDS011;5546;48.714;8.738;2023-03-07T10:29:58;7.70;;;5.53;;
10985;SDS011;5546;48.714;8.738;2023-03-07T10:40:34;7.80;;;5.07;;
10985;SDS011;5546;48.714;8.738;2023-03-07T10:43:06;8.57;;;5.20;;
10985;SDS011;5546;48.714;8.738;2023-03-07T10:45:39;8.17;;;4.90;;
10985;SDS011;5546;48.714;8.738;2023-03-07T10:48:06;8.17;;;5.60;;
10985;SDS011;5546;48.714;8.738;2023-03-07T10:53:33;8.07;;;5.57;;
10985;SDS011;5546;48.714;8.738;2023-03-07T10:56:11;9.03;;;6.13;;
10985;SDS011;5546;48.714;8.738;2023-03-07T11:01:55;11.03;;;6.93;;
10985;SDS011;5546;48.714;8.738;2023-03-07T11:04:23;8.47;;;5.67;;
10985;SDS011;5546;48.714;8.738;2023-03-07T11:07:01;8.20;;;5.73;;
10985;SDS011;5546;48.714;8.738;2023-03-07T11:09:27;11.70;;;5.30;;
10985;SDS011;5546;48.714;8.738;2023-03-07T11:11:58;9.83;;;4.80;;
10985;SDS011;5546;48.714;8.738;2023-03-07T11:14:45;7.63;;;4.93;;
10985;SDS011;5546;48.714;8.738;2023-03-07T11:17:21;7.83;;;5.30;;
10985;SDS011;5546;48.714;8.738;2023-03-07T11:19:52;6.87;;;4.93;;
10985;SDS011;5546;48.714;8.738;2023-03-07T11:22:30;6.80;;;4.37;;
10985;SDS011;5546;48.714;8.738;2023-03-07T11:30:19;6.57;;;5.03;;
10985;SDS011;5546;48.714;8.738;2023-03-07T11:32:52;7.13;;;4.73;;
10985;SDS011;5546;48.714;8.738;2023-03-07T11:35:31;8.43;;;5.47;;
10985;SDS011;5546;48.714;8.738;2023-03-07T11:38:11;5.43;;;3.90;;
10985;SDS011;5546;48.714;8.738;2023-03-07T11:40:59;7.43;;;5.10;;
10985;SDS011;5546;48.714;8.738;2023-03-07T11:43:37;5.90;;;4.47;;
10985;SDS011;5546;48.714;8.738;2023-03-07T11:46:51;7.83;;;4.87;;
10985;SDS011;5546;48.714;8.738;2023-03-07T11:52:06;10.53;;;5.43;;
10985;SDS011;5546;48.714;8.738;2023-03-07T12:00:47;6.63;;;5.20;;
10985;SDS011;5546;48.714;8.738;2023-03-07T12:06:38;8.03;;;5.90;;
10985;SDS011;5546;48.714;8.738;2023-03-07T12:22:55;6.80;;;5.43;;
10985;SDS011;5546;48.714;8.738;2023-03-07T12:25:31;6.13;;;5.30;;
10985;SDS011;5546;48.714;8.738;2023-03-07T12:30:43;7.60;;;5.20;;
10985;SDS011;5546;48.714;8.738;2023-03-07T12:33:16;6.47;;;5.00;;
10985;SDS011;5546;48.714;8.738;2023-03-07T12:35:48;6.93;;;5.73;;
10985;SDS011;5546;48.714;8.738;2023-03-07T12:38:24;6.23;;;5.17;;
10985;SDS011;5546;48.714;8.738;2023-03-07T12:41:04;6.00;;;4.70;;
10985;SDS011;5546;48.714;8.738;2023-03-07T12:43:52;8.10;;;4.83;;
10985;SDS011;5546;48.714;8.738;2023-03-07T12:51:32;6.10;;;5.00;;
10985;SDS011;5546;48.714;8.738;2023-03-07T12:54:06;6.00;;;4.80;;
10985;SDS011;5546;48.714;8.738;2023-03-07T12:59:34;6.60;;;4.67;;
10985;SDS011;5546;48.714;8.738;2023-03-07T13:02:05;6.10;;;5.00;;
10985;SDS011;5546;48.714;8.738;2023-03-07T13:04:40;5.90;;;4.57;;
10985;SDS011;5546;48.714;8.738;2023-03-07T13:09:38;5.53;;;4.50;;
10985;SDS011;5546;48.714;8.738;2023-03-07T13:14:46;6.63;;;5.43;;
10985;SDS011;5546;48.714;8.738;2023-03-07T13:19:52;6.33;;;4.90;;
10985;SDS011;5546;48.714;8.738;2023-03-07T13:24:45;6.07;;;5.13;;
10985;SDS011;5546;48.714;8.738;2023-03-07T13:27:13;9.50;;;5.53;;
10985;SDS011;5546;48.714;8.738;2023-03-07T13:40:50;5.80;;;4.60;;
10985;SDS011;5546;48.714;8.738;2023-03-07T13:45:47;9.47;;;4.80;;
10985;SDS011;5546;48.714;8.738;2023-03-07T13:53:18;5.53;;;4.40;;
10985;SDS011;5546;48.714;8.738;2023-03-07T13:56:12;5.33;;;4.30;;
10985;SDS011;5546;48.714;8.738;2023-03-07T14:06:55;6.17;;;4.83;;
10985;SDS011;5546;48.714;8.738;2023-03-07T14:09:38;6.80;;;5.00;;
10985;SDS011;5546;48.714;8.738;2023-03-07T14:12:28;6.07;;;3.83;;
10985;SDS011;5546;48.714;8.738;2023-03-07T14:15:03;5.77;;;3.77;;
10985;SDS011;5546;48.714;8.738;2023-03-07T14:20:51;15.50;;;8.77;;
10985;SDS011;5546;48.714;8.738;2023-03-07T14:29:01;5.57;;;4.27;;
10985;SDS011;5546;48.714;8.738;2023-03-07T14:31:37;5.40;;;3.97;;
10985;SDS011;5546;48.714;8.738;2023-03-07T14:34:15;5.37;;;4.03;;
10985;SDS011;5546;48.714;8.738;2023-03-07T14:36:40;5.40;;;4.27;;
10985;SDS011;5546;48.714;8.738;2023-03-07T14:39:09;6.90;;;4.23;;
10985;SDS011;5546;48.714;8.738;2023-03-07T14:44:49;7.43;;;4.20;;
10985;SDS011;5546;48.714;8.738;2023-03-07T14:50:16;4.87;;;3.67;;
10985;SDS011;5546;48.714;8.738;2023-03-07T14:52:44;7.97;;;4.33;;
10985;SDS011;5546;48.714;8.738;2023-03-07T14:55:13;4.13;;;3.33;;
10985;SDS011;5546;48.714;8.738;2023-03-07T14:57:44;8.27;;;4.57;;
10985;SDS011;5546;48.714;8.738;2023-03-07T15:02:47;10.27;;;4.20;;
10985;SDS011;5546;48.714;8.738;2023-03-07T15:05:17;4.37;;;3.30;;
10985;SDS011;5546;48.714;8.738;2023-03-07T15:07:46;6.00;;;3.90;;
10985;SDS011;5546;48.714;8.738;2023-03-07T15:10:15;6.20;;;4.40;;
10985;SDS011;5546;48.714;8.738;2023-03-07T15:13:01;5.43;;;4.07;;
10985;SDS011;5546;48.714;8.738;2023-03-07T15:15:34;5.57;;;4.00;;
10985;SDS011;5546;48.714;8.738;2023-03-07T15:18:49;6.20;;;4.10;;
10985;SDS011;5546;48.714;8.738;2023-03-07T15:20:55;6.73;;;4.60;;
10985;SDS011;5546;48.714;8.738;2023-03-07T15:23:23;5.80;;;4.50;;
10985;SDS011;5546;48.714;8.738;2023-03-07T15:25:55;5.20;;;4.13;;
10985;SDS011;5546;48.714;8.738;2023-03-07T15:28:30;6.70;;;4.20;;
10985;SDS011;5546;48.714;8.738;2023-03-07T15:30:58;7.03;;;4.60;;
10985;SDS011;5546;48.714;8.738;2023-03-07T15:33:25;6.63;;;4.67;;
10985;SDS011;5546;48.714;8.738;2023-03-07T15:38:35;8.43;;;4.80;;
10985;SDS011;5546;48.714;8.738;2023-03-07T15:41:01;6.37;;;4.77;;
10985;SDS011;5546;48.714;8.738;2023-03-07T15:43:28;9.60;;;4.73;;
10985;SDS011;5546;48.714;8.738;2023-03-07T15:46:15;5.20;;;4.30;;
10985;SDS011;5546;48.714;8.738;2023-03-07T15:48:46;6.80;;;4.80;;
10985;SDS011;5546;48.714;8.738;2023-03-07T15:51:17;7.87;;;5.17;;
10985;SDS011;5546;48.714;8.738;2023-03-07T15:53:56;6.67;;;4.80;;
10985;SDS011;5546;48.714;8.738;2023-03-07T15:56:25;5.83;;;4.40;;
10985;SDS011;5546;48.714;8.738;2023-03-07T15:58:59;5.80;;;4.67;;
10985;SDS011;5546;48.714;8.738;2023-03-07T16:01:27;7.63;;;4.37;;
10985;SDS011;5546;48.714;8.738;2023-03-07T16:03:54;6.83;;;4.60;;
10985;SDS011;5546;48.714;8.738;2023-03-07T16:09:02;6.40;;;4.63;;
10985;SDS011;5546;48.714;8.738;2023-03-07T16:11:34;6.40;;;4.83;;
10985;SDS011;5546;48.714;8.738;2023-03-07T16:14:00;5.50;;;4.40;;
10985;SDS011;5546;48.714;8.738;2023-03-07T16:16:27;8.13;;;4.83;;
10985;SDS011;5546;48.714;8.738;2023-03-07T16:18:54;7.47;;;5.23;;
10985;SDS011;5546;48.714;8.738;2023-03-07T16:21:23;7.00;;;4.73;;
10985;SDS011;5546;48.714;8.738;2023-03-07T16:23:50;8.57;;;4.77;;
10985;SDS011;5546;48.714;8.738;2023-03-07T16:26:20;6.53;;;4.57;;
10985;SDS011;5546;48.714;8.738;2023-03-07T16:28:47;8.80;;;5.13;;
10985;SDS011;5546;48.714;8.738;2023-03-07T16:31:14;6.63;;;5.03;;
10985;SDS011;5546;48.714;8.738;2023-03-07T16:33:41;7.97;;;4.87;;
10985;SDS011;5546;48.714;8.738;2023-03-07T16:36:09;7.10;;;4.80;;
10985;SDS011;5546;48.714;8.738;2023-03-07T16:38:35;8.40;;;5.07;;
10985;SDS011;5546;48.714;8.738;2023-03-07T16:41:01;7.13;;;4.37;;
10985;SDS011;5546;48.714;8.738;2023-03-07T16:45:57;7.73;;;4.37;;
10985;SDS011;5546;48.714;8.738;2023-03-07T16:48:23;7.67;;;4.70;;
10985;SDS011;5546;48.714;8.738;2023-03-07T16:50:49;5.57;;;4.13;;
10985;SDS011;5546;48.714;8.738;2023-03-07T16:53:14;6.60;;;4.73;;
10985;SDS011;5546;48.714;8.738;2023-03-07T16:55:40;9.83;;;6.03;;
10985;SDS011;5546;48.714;8.738;2023-03-07T16:58:07;8.73;;;4.83;;
10985;SDS011;5546;48.714;8.738;2023-03-07T17:00:53;4.37;;;3.60;;
10985;SDS011;5546;48.714;8.738;2023-03-07T17:03:19;6.63;;;4.20;;
10985;SDS011;5546;48.714;8.738;2023-03-07T17:05:45;7.10;;;4.90;;
10985;SDS011;5546;48.714;8.738;2023-03-07T17:08:11;7.50;;;4.80;;
10985;SDS011;5546;48.714;8.738;2023-03-07T17:10:37;3.80;;;3.30;;
10985;SDS011;5546;48.714;8.738;2023-03-07T17:13:04;6.47;;;4.00;;
10985;SDS011;5546;48.714;8.738;2023-03-07T17:15:33;4.87;;;3.17;;
10985;SDS011;5546;48.714;8.738;2023-03-07T17:18:00;7.93;;;3.93;;
10985;SDS011;5546;48.714;8.738;2023-03-07T17:20:26;6.47;;;3.97;;